Portada
METAR-TAF:

METAR-TAF

Aeropuertos :

Aeropuerto de Bolonia

Bolonia, Italia

latitud: 44-32N, longitud: 011-18E, altitud: 36 m

Observación

El informe se hizo hace 15 minutos, a las 11:20 UTC
Viento 7 kt del este, variando entre este-noreste y sur-sureste
Temperatura 16°C
Humedad 39%
Presión 1021 hPa
Visibilidad 10 km o más
sin nubes por debajo de 1500 m y sin presencia de cumulonimbus.

METAR: LIPE 041120Z 10007KT 070V160 CAVOK 16/02 Q1021

Hora: 13:35 (11:35 UTC)

Pronóstico

El informe se hizo hace 35 minutos, a las 11:00 UTC
Pronóstico válido del 04 a las 12 UTC al 05 a las 12 UTC
Viento 5 kt con dirección variable
Visibilidad 10 km o más
sin nubes por debajo de 1500 m y sin presencia de cumulonimbus.
Evolucionando progresivamente
del 05 a las 08 UTC al 05 a las 10 UTC
Viento 10 kt del este-noreste

TAF: LIPE 041100Z 0412/0512 VRB05KT CAVOK BECMG 0508/0510 07010KT

Observaciones y pronósticos meteorológicos de más de 4000 aeropuertos (mensajes METAR y TAF).

Los puntos amarillos y rojos representan las estaciones disponibles.

Ponga el ratón en el punto deseado para ver el nombre de la estación.

Haga clic para ver las observaciones y los pronósticos meteorológicos.

Para cambiar el mapa : haga clic en los botones verdes con una cruz de color negro para hacer un zoom, en el botón verde con un guión para alejar o en las flechas verdes para mapas adyacentes.


METAR-TAF: